Time;durP1;ratioP1;P1;durP2;ratioP2;P2;SDS_P1;SDS_P2;PMS_P1;PMS_P2;Temp;Humidity;BMP_temperature;BMP_pressure;BME280_temperature;BME280_humidity;BME280_pressure;Samples;Min_cycle;Max_cycle;Signal;HPM_P1;HPM_P2
2023/07/21 00:00:10;;;;;;;7.57;5.95;;;589.70;2432.00;;;;;;5091656;28;20016;-59
2023/07/21 00:02:38;;;;;;;10.45;6.88;;;589.60;2432.00;;;;;;5091915;28;20028;-59
2023/07/21 00:05:04;;;;;;;8.57;6.10;;;589.60;2432.00;;;;;;5091239;28;20024;-59
2023/07/21 00:07:32;;;;;;;7.95;5.32;;;589.50;2432.00;;;;;;5090847;28;20176;-59
2023/07/21 00:09:59;;;;;;;6.72;4.85;;;589.40;2432.00;;;;;;5091612;28;20032;-60
2023/07/21 00:12:25;;;;;;;8.70;6.00;;;589.30;2432.00;;;;;;5091497;28;20107;-59
2023/07/21 00:14:52;;;;;;;9.57;6.00;;;589.30;2432.00;;;;;;5091567;28;20162;-60
2023/07/21 00:17:17;;;;;;;9.25;5.55;;;589.20;2432.00;;;;;;5091256;28;20434;-59
2023/07/21 00:19:44;;;;;;;12.73;5.88;;;589.00;2432.00;;;;;;5090893;28;20113;-59
2023/07/21 00:22:10;;;;;;;8.32;4.90;;;588.90;2432.00;;;;;;5091403;28;20474;-61
2023/07/21 00:24:36;;;;;;;9.05;5.57;;;588.80;2432.00;;;;;;5091496;28;20027;-60
2023/07/21 00:27:02;;;;;;;7.10;4.88;;;564.10;2432.00;;;;;;5091595;28;20024;-60
2023/07/21 00:29:29;;;;;;;9.25;5.03;;;588.80;2432.00;;;;;;5091198;28;20024;-60
2023/07/21 00:31:55;;;;;;;7.40;5.38;;;588.80;2432.00;;;;;;5090957;28;20028;-60
2023/07/21 00:34:24;;;;;;;7.45;5.32;;;564.10;2432.00;;;;;;5090735;28;20097;-60
2023/07/21 00:36:53;;;;;;;8.98;5.75;;;564.00;2432.00;;;;;;5091472;28;20028;-63
2023/07/21 00:39:19;;;;;;;9.15;5.25;;;563.80;2432.00;;;;;;5078023;28;20081;-60
2023/07/21 00:41:45;;;;;;;8.32;4.72;;;563.90;2432.00;;;;;;5090692;28;20016;-60
2023/07/21 00:44:12;;;;;;;6.20;4.85;;;563.90;2432.00;;;;;;5091078;28;20026;-63
2023/07/21 00:46:37;;;;;;;7.22;5.43;;;563.90;2432.00;;;;;;5090675;28;20027;-61
2023/07/21 00:49:04;;;;;;;7.85;5.18;;;564.00;2432.00;;;;;;5090537;28;20020;-60
2023/07/21 00:51:30;;;;;;;8.55;4.90;;;564.00;2432.00;;;;;;5090840;28;20031;-61
2023/07/21 00:53:56;;;;;;;11.60;5.80;;;564.00;2432.00;;;;;;5091037;28;20028;-60
2023/07/21 00:56:21;;;;;;;10.00;5.40;;;563.90;2432.00;;;;;;5090344;28;20036;-63
2023/07/21 00:58:48;;;;;;;7.82;5.32;;;563.90;2432.00;;;;;;5090773;28;20031;-60
2023/07/21 01:01:13;;;;;;;7.35;4.65;;;563.90;2432.00;;;;;;5090415;28;20039;-62
2023/07/21 01:03:39;;;;;;;7.88;5.28;;;563.90;2432.00;;;;;;5090704;28;20028;-60
2023/07/21 01:06:07;;;;;;;7.43;5.13;;;563.80;2432.00;;;;;;5090559;28;20028;-59
2023/07/21 01:08:33;;;;;;;9.43;5.55;;;563.80;2432.00;;;;;;5090601;28;20417;-61
2023/07/21 01:11:00;;;;;;;11.23;6.22;;;563.80;2432.00;;;;;;5090683;28;20016;-62
2023/07/21 01:13:27;;;;;;;6.93;5.07;;;563.80;2432.00;;;;;;5090420;28;20036;-59
2023/07/21 01:15:55;;;;;;;7.35;5.18;;;563.70;2432.00;;;;;;5090016;28;20040;-61
2023/07/21 01:18:21;;;;;;;6.82;4.85;;;563.80;2432.00;;;;;;5089869;28;20027;-62
2023/07/21 01:20:48;;;;;;;8.27;5.10;;;563.80;2432.00;;;;;;5090113;28;20027;-59
2023/07/21 01:23:16;;;;;;;12.55;5.25;;;563.80;2432.00;;;;;;5089978;28;20542;-60
2023/07/21 01:25:42;;;;;;;6.75;5.22;;;563.80;2432.00;;;;;;5089722;28;20035;-60
2023/07/21 01:28:12;;;;;;;7.18;4.75;;;563.80;2432.00;;;;;;5090392;28;20024;-59
2023/07/21 01:30:39;;;;;;;10.10;5.68;;;563.90;2432.00;;;;;;5090066;28;20016;-60
2023/07/21 01:33:07;;;;;;;9.82;5.40;;;563.90;2432.00;;;;;;5089855;28;20016;-60
2023/07/21 01:35:34;;;;;;;9.90;5.53;;;563.90;2432.00;;;;;;5089591;28;20100;-60
2023/07/21 01:38:01;;;;;;;8.30;4.85;;;563.90;2432.00;;;;;;5090027;28;20417;-59
2023/07/21 01:40:27;;;;;;;9.00;5.60;;;563.90;2432.00;;;;;;5089669;28;20683;-59
2023/07/21 01:42:53;;;;;;;8.35;5.88;;;563.90;2432.00;;;;;;5090187;28;20024;-59
2023/07/21 01:45:19;;;;;;;7.47;5.85;;;563.80;2432.00;;;;;;5089778;28;20484;-60
2023/07/21 01:47:46;;;;;;;9.27;6.40;;;563.80;2432.00;;;;;;5089453;28;20044;-59
2023/07/21 01:50:14;;;;;;;8.35;5.72;;;563.70;2432.00;;;;;;5089451;28;20035;-59
2023/07/21 01:52:41;;;;;;;11.57;6.10;;;563.60;2432.00;;;;;;5084809;28;20439;-59
2023/07/21 01:55:25;;;;;;;7.47;5.35;;;563.50;2432.00;;;;;;5089597;28;20039;-60
2023/07/21 01:57:54;;;;;;;;;;;563.50;2432.00;;;;;;5090034;28;20062;-60
2023/07/21 02:00:22;;;;;;;8.50;5.15;;;563.50;2432.00;;;;;;5089875;28;19957;-60
2023/07/21 02:02:49;;;;;;;11.57;6.38;;;563.40;2432.00;;;;;;5089235;28;20807;-60
2023/07/21 02:05:23;;;;;;;8.48;5.68;;;563.40;2432.00;;;;;;5089536;28;20103;-60
2023/07/21 02:07:49;;;;;;;8.98;6.20;;;563.30;2432.00;;;;;;5089167;28;20539;-60
2023/07/21 02:10:16;;;;;;;8.80;5.55;;;538.50;2406.40;;;;;;5089595;28;20059;-59
2023/07/21 02:12:41;;;;;;;11.45;5.65;;;538.30;2406.40;;;;;;5089180;28;20028;-58
2023/07/21 02:15:08;;;;;;;7.22;5.43;;;538.20;2406.40;;;;;;5089418;28;20039;-63
2023/07/21 02:17:34;;;;;;;7.68;5.22;;;538.10;2406.40;;;;;;5088611;28;20123;-64
2023/07/21 02:20:00;;;;;;;9.10;5.13;;;538.00;2406.40;;;;;;5089574;28;20099;-63
2023/07/21 02:22:26;;;;;;;7.53;5.70;;;538.10;2406.40;;;;;;5089271;28;20020;-63
2023/07/21 02:24:51;;;;;;;6.82;5.35;;;538.10;2406.40;;;;;;5088745;28;20020;-64
2023/07/21 02:27:17;;;;;;;6.95;5.32;;;538.10;2406.40;;;;;;5089109;28;20110;-60
2023/07/21 02:29:48;;;;;;;6.85;4.90;;;538.10;2406.40;;;;;;5088512;28;20024;-62
2023/07/21 02:32:14;;;;;;;9.68;5.25;;;538.10;2406.40;;;;;;5088507;28;20059;-60
2023/07/21 02:34:41;;;;;;;9.60;5.38;;;538.10;2406.40;;;;;;5088857;28;20568;-59
2023/07/21 02:37:07;;;;;;;6.53;5.05;;;538.20;2406.40;;;;;;5089105;28;20024;-59
2023/07/21 02:39:33;;;;;;;11.65;5.30;;;538.20;2406.40;;;;;;5088729;28;20024;-59
2023/07/21 02:42:01;;;;;;;9.82;5.53;;;538.10;2406.40;;;;;;5089208;28;20017;-61
2023/07/21 02:44:30;;;;;;;7.20;4.70;;;538.20;2406.40;;;;;;5088914;28;20020;-63
2023/07/21 02:46:58;;;;;;;7.53;4.93;;;538.10;2406.40;;;;;;5088638;28;20036;-59
2023/07/21 02:49:24;;;;;;;9.02;5.38;;;538.10;2406.40;;;;;;5088735;28;20111;-61
2023/07/21 02:51:49;;;;;;;8.43;5.50;;;538.00;2406.40;;;;;;5088701;28;20458;-62
2023/07/21 02:54:15;;;;;;;10.32;5.78;;;538.00;2406.40;;;;;;5088757;28;20089;-59
2023/07/21 02:56:41;;;;;;;6.53;4.65;;;538.00;2406.40;;;;;;5088326;28;20042;-60
2023/07/21 02:59:08;;;;;;;6.57;4.70;;;537.90;2406.40;;;;;;5088889;28;20099;-60
2023/07/21 03:01:35;;;;;;;9.40;5.28;;;537.80;2406.40;;;;;;5088173;28;20024;-62
2023/07/21 03:04:00;;;;;;;10.23;5.53;;;537.80;2406.40;;;;;;5088977;28;20036;-60
2023/07/21 03:06:30;;;;;;;8.65;5.30;;;537.80;2406.40;;;;;;5088658;28;20069;-60
2023/07/21 03:08:56;;;;;;;8.98;5.82;;;537.70;2406.40;;;;;;5088691;28;20020;-60
2023/07/21 03:11:22;;;;;;;8.80;5.78;;;537.60;2406.40;;;;;;5088451;28;20051;-60
2023/07/21 03:13:48;;;;;;;7.07;5.50;;;512.90;2380.80;;;;;;5089101;28;20063;-59
2023/07/21 03:16:14;;;;;;;7.88;5.40;;;512.90;2380.80;;;;;;5088018;28;20036;-59
2023/07/21 03:18:40;;;;;;;10.60;6.00;;;512.80;2380.80;;;;;;5088377;28;20489;-59
2023/07/21 03:21:05;;;;;;;11.23;5.85;;;512.80;2380.80;;;;;;5088328;28;20355;-59
2023/07/21 03:23:31;;;;;;;12.88;5.80;;;512.80;2380.80;;;;;;5088428;28;20028;-60
2023/07/21 03:25:57;;;;;;;8.32;4.55;;;512.90;2380.80;;;;;;5088420;28;20024;-59
2023/07/21 03:28:23;;;;;;;8.15;5.22;;;537.60;2406.40;;;;;;5088285;28;20032;-59
2023/07/21 03:30:59;;;;;;;8.68;5.45;;;512.90;2380.80;;;;;;5088370;28;20050;-60
2023/07/21 03:33:25;;;;;;;9.82;6.22;;;537.60;2406.40;;;;;;5088138;28;20038;-59
2023/07/21 03:36:01;;;;;;;7.50;5.20;;;537.60;2406.40;;;;;;5082929;28;20040;-60
2023/07/21 03:38:28;;;;;;;10.50;5.47;;;537.60;2406.40;;;;;;5081816;28;20023;-59
2023/07/21 03:41:07;;;;;;;10.02;6.22;;;537.60;2406.40;;;;;;5074647;28;20051;-59
2023/07/21 03:43:35;;;;;;;7.63;4.90;;;537.70;2406.40;;;;;;5090623;28;20027;-59
2023/07/21 03:46:02;;;;;;;7.68;5.53;;;537.70;2406.40;;;;;;5092130;28;20035;-60
2023/07/21 03:48:29;;;;;;;9.48;5.53;;;537.90;2406.40;;;;;;5091744;28;20524;-59
2023/07/21 03:51:00;;;;;;;8.18;5.53;;;538.00;2406.40;;;;;;5084672;28;20024;-58
2023/07/21 03:53:26;;;;;;;7.07;5.13;;;538.10;2406.40;;;;;;5070503;28;20474;-59
2023/07/21 03:55:52;;;;;;;8.38;5.35;;;538.10;2406.40;;;;;;5080613;28;20040;-59
2023/07/21 03:58:19;;;;;;;8.13;5.38;;;538.20;2406.40;;;;;;5073704;28;20432;-59
2023/07/21 04:00:45;;;;;;;6.20;4.50;;;538.30;2406.40;;;;;;5070447;28;20081;-58
2023/07/21 04:03:11;;;;;;;8.27;6.22;;;538.40;2406.40;;;;;;5070314;28;20669;-59
2023/07/21 04:05:37;;;;;;;7.90;6.07;;;538.50;2406.40;;;;;;5070958;28;20029;-59
2023/07/21 04:08:04;;;;;;;9.48;5.70;;;538.50;2406.40;;;;;;5070764;28;20508;-60
2023/07/21 04:10:30;;;;;;;7.72;5.30;;;538.50;2406.40;;;;;;5070786;28;20024;-60
2023/07/21 04:12:56;;;;;;;8.27;5.10;;;538.50;2406.40;;;;;;5070623;28;20134;-61
2023/07/21 04:15:26;;;;;;;8.73;5.60;;;538.50;2406.40;;;;;;5070567;28;20040;-58
2023/07/21 04:17:53;;;;;;;9.48;5.80;;;538.50;2406.40;;;;;;5090813;28;20021;-60
2023/07/21 04:20:19;;;;;;;9.70;5.32;;;563.30;2432.00;;;;;;5091495;28;20024;-60
2023/07/21 04:22:45;;;;;;;8.00;5.43;;;563.30;2432.00;;;;;;5091449;28;20458;-59
2023/07/21 04:25:12;;;;;;;9.95;5.78;;;563.40;2432.00;;;;;;5090869;28;20490;-61
2023/07/21 04:27:38;;;;;;;9.73;5.50;;;563.50;2432.00;;;;;;5091260;28;20028;-60
2023/07/21 04:30:04;;;;;;;12.25;6.05;;;563.60;2432.00;;;;;;5091303;28;20020;-60
2023/07/21 04:32:33;;;;;;;8.40;5.32;;;563.70;2432.00;;;;;;5091171;28;20066;-59
2023/07/21 04:34:59;;;;;;;8.02;5.47;;;563.80;2432.00;;;;;;5091217;28;20055;-59
2023/07/21 04:37:25;;;;;;;8.27;5.72;;;564.00;2432.00;;;;;;5091315;28;20093;-59
2023/07/21 04:39:51;;;;;;;6.43;5.15;;;564.10;2432.00;;;;;;5090848;28;20024;-59
2023/07/21 04:42:17;;;;;;;8.45;6.07;;;588.80;2432.00;;;;;;5090875;28;20028;-58
2023/07/21 04:44:48;;;;;;;10.02;5.85;;;589.00;2432.00;;;;;;5090659;28;20076;-59
2023/07/21 04:47:13;;;;;;;8.45;5.38;;;589.10;2432.00;;;;;;5090368;28;20044;-60
2023/07/21 04:49:39;;;;;;;8.40;5.82;;;614.50;2432.00;;;;;;5091083;28;20043;-59
2023/07/21 04:52:05;;;;;;;9.48;6.72;;;691.80;2432.00;;;;;;5090785;28;20382;-59
2023/07/21 04:54:31;;;;;;;10.40;6.53;;;742.40;2380.80;;;;;;5090186;28;20036;-59
2023/07/21 04:56:57;;;;;;;10.48;6.68;;;819.30;2048.00;;;;;;5090750;28;20485;-63
2023/07/21 04:59:23;;;;;;;11.35;5.93;;;870.40;1843.20;;;;;;5090400;28;20020;-62
2023/07/21 05:01:49;;;;;;;13.43;6.55;;;896.20;1689.60;;;;;;5090805;28;20016;-61
2023/07/21 05:04:16;;;;;;;8.35;6.32;;;896.80;1638.40;;;;;;5090822;28;20027;-60
2023/07/21 05:06:46;;;;;;;8.95;6.80;;;922.10;1612.80;;;;;;5090739;28;20751;-63
2023/07/21 05:09:13;;;;;;;13.80;7.05;;;;;;;;;;5090348;28;20422;-63
2023/07/21 05:11:38;;;;;;;10.10;6.68;;;948.10;1510.40;;;;;;5090339;28;20382;-63
2023/07/21 05:14:04;;;;;;;7.70;6.80;;;998.70;1459.20;;;;;;5090624;28;20462;-61
2023/07/21 05:16:31;;;;;;;10.45;6.75;;;998.60;1433.60;;;;;;5076961;28;20055;-62
2023/07/21 05:18:57;;;;;;;11.95;6.80;;;998.40;1459.20;;;;;;5090339;28;20025;-64
2023/07/21 05:21:23;;;;;;;9.40;7.47;;;973.40;1459.20;;;;;;5090172;28;20115;-62
2023/07/21 05:23:49;;;;;;;9.75;6.30;;;999.00;1408.00;;;;;;5090126;28;20131;-63
2023/07/21 05:26:15;;;;;;;7.68;6.97;;;1024.30;1382.40;;;;;;5090282;28;20031;-60
2023/07/21 05:28:41;;;;;;;13.20;7.53;;;1050.40;1331.20;;;;;;5077356;28;20466;-60
2023/07/21 05:31:11;;;;;;;11.45;8.05;;;1050.40;1331.20;;;;;;5086934;28;20031;-65
2023/07/21 05:33:36;;;;;;;11.35;8.80;;;1075.60;1280.00;;;;;;5090074;28;20016;-64
2023/07/21 05:36:08;;;;;;;9.18;8.27;;;1075.60;1280.00;;;;;;5090116;28;20024;-61
2023/07/21 05:38:35;;;;;;;11.70;9.23;;;1075.90;1254.40;;;;;;5089821;28;20036;-63
2023/07/21 05:41:01;;;;;;;10.40;8.50;;;1101.50;1228.80;;;;;;5089519;28;20038;-63
2023/07/21 05:43:27;;;;;;;10.95;8.63;;;1100.90;1254.40;;;;;;5090199;28;20028;-60
2023/07/21 05:45:53;;;;;;;9.18;8.38;;;1101.40;1228.80;;;;;;5089437;28;20382;-65
2023/07/21 05:48:19;;;;;;;12.13;10.82;;;1101.10;1228.80;;;;;;5089657;28;20051;-64
2023/07/21 05:50:44;;;;;;;9.80;8.85;;;1101.30;1228.80;;;;;;5089587;28;20023;-64
2023/07/21 05:53:10;;;;;;;10.55;9.05;;;1127.30;1177.60;;;;;;5089633;28;20024;-59
2023/07/21 05:55:40;;;;;;;12.60;9.52;;;1126.40;1203.20;;;;;;5089357;28;20051;-63
2023/07/21 05:58:05;;;;;;;9.07;8.18;;;1076.10;1203.20;;;;;;5088914;28;20069;-61
2023/07/21 06:00:36;;;;;;;15.13;8.75;;;1101.70;1177.60;;;;;;5089725;28;20031;-63
2023/07/21 06:03:02;;;;;;;10.98;9.85;;;1101.40;1177.60;;;;;;5089393;28;20031;-62
2023/07/21 06:05:29;;;;;;;10.60;8.50;;;1101.10;1203.20;;;;;;5089036;28;20030;-62
2023/07/21 06:07:55;;;;;;;12.07;9.23;;;1152.20;1126.40;;;;;;5089561;28;20084;-62
2023/07/21 06:10:21;;;;;;;11.10;9.88;;;1126.80;1177.60;;;;;;5089067;28;20040;-60
2023/07/21 06:12:48;;;;;;;12.18;10.73;;;1126.60;1177.60;;;;;;5089472;28;20039;-61
2023/07/21 06:15:14;;;;;;;14.65;9.73;;;1126.60;1152.00;;;;;;5079593;28;20036;-60
2023/07/21 06:17:40;;;;;;;16.85;11.82;;;1152.50;1126.40;;;;;;5076507;28;20073;-58
2023/07/21 06:20:07;;;;;;;15.20;10.07;;;1178.20;1100.80;;;;;;5074885;28;20039;-60
2023/07/21 06:22:33;;;;;;;12.75;10.68;;;1177.70;1100.80;;;;;;5076512;28;20024;-58
2023/07/21 06:24:59;;;;;;;16.27;10.32;;;1178.30;1100.80;;;;;;5088777;28;20689;-64
2023/07/21 06:27:27;;;;;;;17.90;13.20;;;;;;;;;;5088805;28;20449;-61
2023/07/21 06:29:53;;;;;;;24.25;13.00;;;1152.10;1126.40;;;;;;5088737;28;20474;-60
2023/07/21 06:32:19;;;;;;;15.82;12.05;;;1152.40;1126.40;;;;;;5089172;28;20032;-59
2023/07/21 06:34:44;;;;;;;31.75;12.85;;;1126.60;1177.60;;;;;;5088805;28;20554;-62
2023/07/21 06:37:10;;;;;;;20.42;13.77;;;1152.10;1126.40;;;;;;5089138;28;20032;-60
2023/07/21 06:39:36;;;;;;;19.10;12.90;;;1127.10;1152.00;;;;;;5089190;28;20047;-60
2023/07/21 06:42:01;;;;;;;14.77;11.30;;;1152.60;1126.40;;;;;;5089104;28;20026;-60
2023/07/21 06:44:27;;;;;;;25.65;13.00;;;1177.70;1075.20;;;;;;5089154;28;20023;-61
2023/07/21 06:46:53;;;;;;;15.07;11.30;;;1152.90;1100.80;;;;;;5088482;28;20039;-60
2023/07/21 06:49:18;;;;;;;15.60;12.57;;;1152.50;1100.80;;;;;;5089011;28;20020;-59
2023/07/21 06:51:44;;;;;;;14.15;11.90;;;1178.20;1049.60;;;;;;5088743;28;20063;-59
2023/07/21 06:54:11;;;;;;;15.18;12.35;;;1177.70;1100.80;;;;;;5088947;28;20022;-61
2023/07/21 06:56:36;;;;;;;13.80;12.43;;;1203.40;1075.20;;;;;;5088655;28;20090;-63
2023/07/21 06:59:02;;;;;;;18.20;11.52;;;1177.70;1100.80;;;;;;5088959;28;20016;-59
2023/07/21 07:01:28;;;;;;;16.35;13.25;;;1203.40;1075.20;;;;;;5088683;28;20016;-58
2023/07/21 07:03:55;;;;;;;13.15;11.57;;;1152.70;1126.40;;;;;;5088430;28;20021;-58
2023/07/21 07:06:21;;;;;;;15.15;11.82;;;1178.50;1075.20;;;;;;5088604;28;20028;-59
2023/07/21 07:08:47;;;;;;;13.13;11.82;;;1178.30;1100.80;;;;;;5088520;28;20024;-63
2023/07/21 07:11:12;;;;;;;14.02;12.57;;;1203.20;1126.40;;;;;;5088021;28;20123;-59
2023/07/21 07:13:38;;;;;;;13.93;12.77;;;1203.60;1100.80;;;;;;5088519;28;20020;-58
2023/07/21 07:16:04;;;;;;;86.22;20.35;;;1178.00;1126.40;;;;;;5088531;28;20078;-59
2023/07/21 07:18:30;;;;;;;16.35;12.15;;;1152.90;1152.00;;;;;;5092775;28;20028;-61
2023/07/21 07:20:56;;;;;;;26.85;12.35;;;1178.20;1126.40;;;;;;5092641;28;20020;-58
2023/07/21 07:23:23;;;;;;;17.38;13.27;;;1178.10;1152.00;;;;;;5092101;28;20027;-59
2023/07/21 07:25:50;;;;;;;15.40;11.43;;;1178.30;1126.40;;;;;;5092679;28;20016;-59
2023/07/21 07:28:17;;;;;;;14.82;13.25;;;1203.60;1126.40;;;;;;5091781;28;20382;-58
2023/07/21 07:30:43;;;;;;;13.63;12.15;;;1203.80;1100.80;;;;;;5092311;28;20452;-57
2023/07/21 07:33:08;;;;;;;14.13;11.88;;;1178.50;1126.40;;;;;;5092431;28;20016;-59
2023/07/21 07:35:34;;;;;;;13.20;11.95;;;1203.60;1126.40;;;;;;5091851;28;20466;-59
2023/07/21 07:38:00;;;;;;;13.55;12.32;;;;;;;;;;5092821;28;20501;-59
2023/07/21 07:40:26;;;;;;;12.82;11.70;;;1203.20;1152.00;;;;;;5092500;28;20024;-59
2023/07/21 07:42:51;;;;;;;13.63;12.38;;;1203.40;1126.40;;;;;;5091880;28;20549;-59
2023/07/21 07:45:17;;;;;;;13.63;12.30;;;1178.20;1126.40;;;;;;5092286;28;20055;-59
2023/07/21 07:47:44;;;;;;;13.18;12.02;;;1203.40;1100.80;;;;;;5090517;28;20036;-59
2023/07/21 07:50:11;;;;;;;15.23;13.45;;;1203.20;1126.40;;;;;;5092063;28;20024;-58
2023/07/21 07:52:39;;;;;;;13.00;11.80;;;1203.20;1126.40;;;;;;5092248;28;20024;-60
2023/07/21 07:55:06;;;;;;;14.63;13.50;;;1228.90;1126.40;;;;;;5091755;28;20028;-58
2023/07/21 07:57:31;;;;;;;14.88;13.43;;;1203.90;1100.80;;;;;;5091514;28;20024;-59
2023/07/21 07:59:57;;;;;;;14.48;13.27;;;1229.20;1100.80;;;;;;5091879;28;20020;-61
2023/07/21 08:02:23;;;;;;;18.10;13.07;;;1229.30;1100.80;;;;;;5089105;28;20450;-59
2023/07/21 08:04:49;;;;;;;17.20;13.30;;;1229.30;1075.20;;;;;;5090844;28;20509;-59
2023/07/21 08:07:16;;;;;;;14.40;12.90;;;1228.80;1126.40;;;;;;5091525;28;20374;-56
2023/07/21 08:09:41;;;;;;;14.25;12.90;;;1229.30;1100.80;;;;;;5091554;28;20065;-60
2023/07/21 08:12:08;;;;;;;14.40;13.13;;;1228.80;1126.40;;;;;;5091546;28;20445;-62
2023/07/21 08:14:33;;;;;;;13.18;12.13;;;1229.50;1100.80;;;;;;5090978;28;20067;-62
2023/07/21 08:17:02;;;;;;;12.95;12.02;;;1229.70;1075.20;;;;;;5091484;28;20073;-57
2023/07/21 08:19:31;;;;;;;15.57;14.07;;;1254.80;1100.80;;;;;;5091458;28;20111;-57
2023/07/21 08:22:06;;;;;;;13.27;12.07;;;1254.60;1100.80;;;;;;5078473;28;20039;-58
2023/07/21 08:24:33;;;;;;;14.60;13.20;;;1229.20;1100.80;;;;;;5071158;28;20021;-58
2023/07/21 08:26:59;;;;;;;13.48;12.10;;;1178.10;1126.40;;;;;;5071207;28;20528;-58
2023/07/21 08:29:26;;;;;;;12.98;8.98;;;1101.20;1254.40;;;;;;5070250;28;20055;-62
2023/07/21 08:31:52;;;;;;;10.82;9.77;;;1049.70;1331.20;;;;;;5070698;28;20411;-58
2023/07/21 08:34:18;;;;;;;10.82;8.77;;;998.70;1433.60;;;;;;5070974;28;20459;-58
2023/07/21 08:36:44;;;;;;;9.93;8.77;;;973.40;1459.20;;;;;;5070729;28;20131;-64
2023/07/21 08:39:09;;;;;;;9.50;8.50;;;948.10;1484.80;;;;;;5071096;28;20027;-57
2023/07/21 08:41:48;;;;;;;10.55;8.13;;;947.50;1459.20;;;;;;5070538;28;20371;-57
2023/07/21 08:44:15;;;;;;;9.85;7.97;;;922.40;1510.40;;;;;;5070336;28;20479;-57
2023/07/21 08:46:41;;;;;;;13.80;8.40;;;922.50;1510.40;;;;;;5070465;28;20080;-58
2023/07/21 08:49:08;;;;;;;11.73;8.02;;;922.00;1536.00;;;;;;5070617;28;20057;-59
2023/07/21 08:51:35;;;;;;;12.85;8.20;;;921.80;1561.60;;;;;;5070479;28;20073;-58
2023/07/21 08:54:01;;;;;;;10.70;8.30;;;921.80;1561.60;;;;;;5070839;28;20028;-58
2023/07/21 08:56:27;;;;;;;9.25;7.80;;;896.70;1561.60;;;;;;5073479;28;20398;-62
2023/07/21 08:58:53;;;;;;;9.05;6.90;;;896.90;1561.60;;;;;;5070504;28;20028;-56
2023/07/21 09:01:19;;;;;;;14.05;7.75;;;921.90;1561.60;;;;;;5072128;28;20055;-58
2023/07/21 09:03:46;;;;;;;8.63;7.70;;;921.90;1561.60;;;;;;5069462;28;20540;-63
2023/07/21 09:06:13;;;;;;;7.75;7.00;;;921.70;1561.60;;;;;;5079380;28;20438;-58
2023/07/21 09:08:39;;;;;;;14.23;8.00;;;896.80;1561.60;;;;;;5070346;28;20024;-63
2023/07/21 09:11:07;;;;;;;9.98;7.45;;;896.70;1561.60;;;;;;5069772;28;20027;-58
2023/07/21 09:13:33;;;;;;;11.32;8.30;;;896.90;1561.60;;;;;;5069925;28;20040;-58
2023/07/21 09:16:01;;;;;;;9.18;7.45;;;896.00;1612.80;;;;;;5070160;28;20032;-58
2023/07/21 09:18:48;;;;;;;12.48;8.50;;;896.70;1561.60;;;;;;5070098;28;20032;-58
2023/07/21 09:21:21;;;;;;;14.30;8.00;;;896.70;1612.80;;;;;;5067881;28;20026;-58
2023/07/21 09:23:48;;;;;;;9.77;7.68;;;896.20;1612.80;;;;;;5074058;28;20082;-57
2023/07/21 09:26:22;;;;;;;9.20;8.27;;;871.10;1638.40;;;;;;5070311;28;20028;-59
2023/07/21 09:28:49;;;;;;;10.43;8.02;;;871.30;1612.80;;;;;;5088695;28;20028;-58
2023/07/21 09:31:15;;;;;;;9.50;7.90;;;896.20;1638.40;;;;;;5088444;28;20024;-58
2023/07/21 09:33:45;;;;;;;9.43;8.48;;;896.10;1612.80;;;;;;5087968;28;20470;-58
2023/07/21 09:36:15;;;;;;;9.40;8.43;;;896.10;1612.80;;;;;;5088065;28;20458;-58
2023/07/21 09:38:42;;;;;;;9.10;8.20;;;896.30;1612.80;;;;;;5081610;28;20032;-59
2023/07/21 09:41:13;;;;;;;9.25;8.35;;;896.10;1638.40;;;;;;5087977;28;20486;-60
2023/07/21 09:43:39;;;;;;;14.52;8.40;;;871.10;1664.00;;;;;;5088513;28;20020;-57
2023/07/21 09:46:09;;;;;;;9.70;8.70;;;871.10;1689.60;;;;;;5088169;28;20140;-57
2023/07/21 09:48:36;;;;;;;8.48;7.63;;;871.30;1638.40;;;;;;5086987;28;20097;-58
2023/07/21 09:51:04;;;;;;;9.93;8.82;;;870.90;1689.60;;;;;;5087858;28;20020;-58
2023/07/21 09:53:39;;;;;;;10.98;8.15;;;871.30;1664.00;;;;;;5088032;28;20106;-58
2023/07/21 09:56:06;;;;;;;12.43;7.30;;;896.10;1740.80;;;;;;5087966;28;20043;-58
2023/07/21 09:58:36;;;;;;;13.02;8.02;;;896.10;1664.00;;;;;;5087751;28;20107;-58
2023/07/21 10:01:04;;;;;;;9.40;8.02;;;871.30;1664.00;;;;;;5087513;28;20482;-59
2023/07/21 10:03:31;;;;;;;9.43;7.55;;;896.00;1689.60;;;;;;5087940;28;20390;-64
2023/07/21 10:05:58;;;;;;;9.27;8.07;;;871.30;1689.60;;;;;;5088276;28;20094;-58
2023/07/21 10:08:27;;;;;;;11.98;8.63;;;870.90;1715.20;;;;;;5087998;28;20039;-58
2023/07/21 10:10:56;;;;;;;15.65;8.57;;;870.90;1715.20;;;;;;5087527;28;20049;-58
2023/07/21 10:13:25;;;;;;;11.57;8.18;;;871.30;1715.20;;;;;;5074863;28;20477;-58
2023/07/21 10:15:52;;;;;;;9.68;7.88;;;896.10;1715.20;;;;;;5087545;28;20537;-58
2023/07/21 10:18:18;;;;;;;11.25;8.43;;;871.30;1689.60;;;;;;5087741;28;20032;-57
2023/07/21 10:20:49;;;;;;;11.32;8.43;;;896.00;1740.80;;;;;;5087933;28;20068;-58
2023/07/21 10:23:28;;;;;;;11.07;8.38;;;871.30;1689.60;;;;;;5087678;28;20024;-57
2023/07/21 10:25:58;;;;;;;11.85;8.02;;;870.90;1740.80;;;;;;5087314;28;20205;-58
2023/07/21 10:28:36;;;;;;;10.85;8.18;;;896.00;1740.80;;;;;;5087715;28;20050;-57
2023/07/21 10:34:03;;;;;;;17.55;9.75;;;871.00;1715.20;;;;;;5087711;28;20024;-57
2023/07/21 10:36:49;;;;;;;12.07;8.25;;;;;;;;;;5087527;28;20039;-57
2023/07/21 10:39:19;;;;;;;12.88;8.73;;;870.70;1740.80;;;;;;5063915;28;20036;-57
2023/07/21 10:41:47;;;;;;;12.02;9.40;;;870.90;1715.20;;;;;;5087274;28;20024;-57
2023/07/21 10:44:13;;;;;;;10.35;8.93;;;871.00;1740.80;;;;;;5087778;28;20031;-57
2023/07/21 10:46:41;;;;;;;10.52;9.43;;;870.90;1740.80;;;;;;5087170;28;20028;-57
2023/07/21 10:49:11;;;;;;;45.97;14.13;;;870.60;1792.00;;;;;;5087451;28;20378;-57
2023/07/21 10:51:41;;;;;;;10.77;9.63;;;870.50;1766.40;;;;;;5089947;28;20031;-57
2023/07/21 10:54:07;;;;;;;13.75;8.68;;;870.50;1766.40;;;;;;5094059;28;20012;-58
2023/07/21 10:56:53;;;;;;;13.57;9.45;;;870.70;1766.40;;;;;;5094022;28;20386;-57
2023/07/21 10:59:20;;;;;;;11.10;8.20;;;870.80;1766.40;;;;;;5094258;28;20052;-57
2023/07/21 11:01:49;;;;;;;14.13;8.90;;;870.70;1715.20;;;;;;5094068;28;20026;-58
2023/07/21 11:04:16;;;;;;;9.43;8.43;;;870.80;1766.40;;;;;;5093910;28;20023;-57
2023/07/21 11:06:43;;;;;;;24.95;10.50;;;870.90;1766.40;;;;;;5093332;28;20081;-57
2023/07/21 11:09:11;;;;;;;10.40;8.25;;;870.60;1792.00;;;;;;5094421;28;20386;-57
2023/07/21 11:11:39;;;;;;;10.27;8.00;;;870.80;1766.40;;;;;;5094047;28;20024;-57
2023/07/21 11:14:09;;;;;;;13.43;9.38;;;870.40;1792.00;;;;;;5093851;28;20042;-56
2023/07/21 11:16:34;;;;;;;12.73;9.48;;;845.60;1792.00;;;;;;5093639;28;20054;-57
2023/07/21 11:19:03;;;;;;;24.05;13.05;;;870.50;1766.40;;;;;;5093073;28;20029;-60
2023/07/21 11:21:28;;;;;;;14.68;9.52;;;870.60;1766.40;;;;;;5094073;28;20034;-58
2023/07/21 11:24:00;;;;;;;17.02;9.70;;;870.40;1740.80;;;;;;5093658;28;20458;-56
2023/07/21 11:26:26;;;;;;;9.90;8.52;;;870.60;1740.80;;;;;;5094041;28;20114;-57
2023/07/21 11:28:52;;;;;;;11.00;8.80;;;870.80;1792.00;;;;;;5093689;28;20111;-58
2023/07/21 11:31:18;;;;;;;13.25;9.27;;;870.90;1792.00;;;;;;5093328;28;20126;-57
2023/07/21 11:33:45;;;;;;;12.52;9.27;;;870.90;1715.20;;;;;;5093368;28;20544;-57
2023/07/21 11:36:23;;;;;;;14.55;9.35;;;871.10;1766.40;;;;;;5094427;28;20027;-57
2023/07/21 11:38:59;;;;;;;15.13;9.18;;;871.00;1715.20;;;;;;5095501;28;20024;-56
2023/07/21 11:41:53;;;;;;;11.73;9.70;;;870.90;1715.20;;;;;;5094957;28;20021;-62
2023/07/21 11:44:20;;;;;;;12.73;8.73;;;870.70;1740.80;;;;;;5093136;28;20028;-57
2023/07/21 11:47:09;;;;;;;10.52;8.90;;;870.50;1766.40;;;;;;5093779;28;20020;-57
2023/07/21 11:49:40;;;;;;;13.23;8.48;;;870.80;1740.80;;;;;;5095145;28;20048;-57
2023/07/21 11:52:07;;;;;;;12.75;9.20;;;870.70;1740.80;;;;;;5095767;28;20442;-57
2023/07/21 11:54:43;;;;;;;11.93;8.70;;;870.90;1766.40;;;;;;5094760;28;20027;-57
2023/07/21 11:57:10;;;;;;;11.18;8.90;;;870.90;1766.40;;;;;;5095188;28;20496;-56
2023/07/21 11:59:37;;;;;;;20.65;9.70;;;871.00;1740.80;;;;;;5094652;28;20105;-58
2023/07/21 12:02:04;;;;;;;12.18;8.63;;;870.80;1740.80;;;;;;5094374;28;20020;-57
2023/07/21 12:04:32;;;;;;;10.00;9.00;;;870.90;1766.40;;;;;;5090580;28;20074;-56
2023/07/21 12:06:57;;;;;;;12.88;9.30;;;870.90;1740.80;;;;;;5091992;28;20468;-57
2023/07/21 12:09:23;;;;;;;12.52;8.80;;;871.10;1766.40;;;;;;5091429;28;20064;-58
2023/07/21 12:11:49;;;;;;;10.25;8.52;;;871.20;1766.40;;;;;;5091498;28;20056;-57
2023/07/21 12:14:15;;;;;;;14.77;8.40;;;871.10;1740.80;;;;;;5091187;28;20020;-57